sensor_id;sensor_type;location;lat;lon;timestamp;pressure;altitude;pressure_sealevel;temperature;humidity
45403;BME280;47427;51.976;5.326;2023-03-03T00:01:51;102462.38;;;0.53;100.00
45403;BME280;47427;51.976;5.326;2023-03-03T00:05:14;102457.09;;;0.51;100.00
45403;BME280;47427;51.976;5.326;2023-03-03T00:08:40;102459.41;;;0.48;100.00
45403;BME280;47427;51.976;5.326;2023-03-03T00:12:25;102465.59;;;0.50;100.00
45403;BME280;47427;51.976;5.326;2023-03-03T00:15:49;102463.78;;;0.49;100.00
45403;BME280;47427;51.976;5.326;2023-03-03T00:19:16;102472.44;;;0.50;100.00
45403;BME280;47427;51.976;5.326;2023-03-03T00:22:38;102471.34;;;0.56;100.00
45403;BME280;47427;51.976;5.326;2023-03-03T00:26:49;102480.91;;;0.76;100.00
45403;BME280;47427;51.976;5.326;2023-03-03T00:29:49;102469.66;;;0.76;100.00
45403;BME280;47427;51.976;5.326;2023-03-03T00:33:31;102470.84;;;0.98;100.00
45403;BME280;47427;51.976;5.326;2023-03-03T00:36:55;102475.88;;;1.16;100.00
45403;BME280;47427;51.976;5.326;2023-03-03T00:40:26;102476.06;;;1.27;100.00
45403;BME280;47427;51.976;5.326;2023-03-03T00:43:51;102471.44;;;1.34;100.00
45403;BME280;47427;51.976;5.326;2023-03-03T00:50:39;102480.03;;;1.43;100.00
45403;BME280;47427;51.976;5.326;2023-03-03T00:54:04;102474.84;;;1.43;100.00
45403;BME280;47427;51.976;5.326;2023-03-03T00:57:26;102471.25;;;1.51;100.00
45403;BME280;47427;51.976;5.326;2023-03-03T01:00:52;102481.22;;;1.57;100.00
45403;BME280;47427;51.976;5.326;2023-03-03T01:04:17;102480.09;;;1.63;100.00
45403;BME280;47427;51.976;5.326;2023-03-03T01:07:38;102472.19;;;1.62;100.00
45403;BME280;47427;51.976;5.326;2023-03-03T01:11:12;102477.00;;;1.57;100.00
45403;BME280;47427;51.976;5.326;2023-03-03T01:14:37;102488.91;;;1.65;100.00
45403;BME280;47427;51.976;5.326;2023-03-03T01:18:00;102483.84;;;1.67;100.00
45403;BME280;47427;51.976;5.326;2023-03-03T01:21:22;102486.94;;;1.52;100.00
45403;BME280;47427;51.976;5.326;2023-03-03T01:24:45;102487.34;;;1.57;100.00
45403;BME280;47427;51.976;5.326;2023-03-03T01:28:26;102502.22;;;1.60;100.00
45403;BME280;47427;51.976;5.326;2023-03-03T01:31:49;102487.75;;;1.72;100.00
45403;BME280;47427;51.976;5.326;2023-03-03T01:35:12;102478.59;;;1.76;100.00
45403;BME280;47427;51.976;5.326;2023-03-03T01:38:37;102492.84;;;1.81;100.00
45403;BME280;47427;51.976;5.326;2023-03-03T01:42:02;102493.13;;;1.84;100.00
45403;BME280;47427;51.976;5.326;2023-03-03T01:45:28;102498.94;;;1.81;100.00
45403;BME280;47427;51.976;5.326;2023-03-03T01:48:57;102497.09;;;1.70;100.00
45403;BME280;47427;51.976;5.326;2023-03-03T01:52:25;102493.72;;;1.71;100.00
45403;BME280;47427;51.976;5.326;2023-03-03T01:55:51;102490.59;;;1.65;100.00
45403;BME280;47427;51.976;5.326;2023-03-03T01:59:20;102496.00;;;1.58;100.00
45403;BME280;47427;51.976;5.326;2023-03-03T02:02:53;102496.63;;;1.55;100.00
45403;BME280;47427;51.976;5.326;2023-03-03T02:06:17;102497.69;;;1.57;100.00
45403;BME280;47427;51.976;5.326;2023-03-03T02:13:17;102496.13;;;1.59;100.00
45403;BME280;47427;51.976;5.326;2023-03-03T02:16:39;102495.22;;;1.59;100.00
45403;BME280;47427;51.976;5.326;2023-03-03T02:24:36;102491.72;;;1.58;100.00
45403;BME280;47427;51.976;5.326;2023-03-03T02:27:49;102494.31;;;1.58;100.00
45403;BME280;47427;51.976;5.326;2023-03-03T02:31:15;102491.56;;;1.57;100.00
45403;BME280;47427;51.976;5.326;2023-03-03T02:34:51;102498.06;;;1.62;100.00
45403;BME280;47427;51.976;5.326;2023-03-03T02:45:23;102492.50;;;1.57;100.00
45403;BME280;47427;51.976;5.326;2023-03-03T02:48:45;102496.22;;;1.50;100.00
45403;BME280;47427;51.976;5.326;2023-03-03T02:52:10;102495.38;;;1.41;100.00
45403;BME280;47427;51.976;5.326;2023-03-03T02:55:35;102491.00;;;1.40;100.00
45403;BME280;47427;51.976;5.326;2023-03-03T02:58:57;102496.66;;;1.36;100.00
45403;BME280;47427;51.976;5.326;2023-03-03T03:02:20;102496.72;;;1.46;100.00
45403;BME280;47427;51.976;5.326;2023-03-03T03:05:43;102498.03;;;1.51;100.00
45403;BME280;47427;51.976;5.326;2023-03-03T03:09:07;102498.59;;;1.58;100.00
45403;BME280;47427;51.976;5.326;2023-03-03T03:12:30;102500.38;;;1.59;100.00
45403;BME280;47427;51.976;5.326;2023-03-03T03:15:52;102507.09;;;1.57;100.00
45403;BME280;47427;51.976;5.326;2023-03-03T03:19:13;102505.56;;;1.59;100.00
45403;BME280;47427;51.976;5.326;2023-03-03T03:22:38;102500.94;;;1.65;100.00
45403;BME280;47427;51.976;5.326;2023-03-03T03:26:00;102504.28;;;1.64;100.00
45403;BME280;47427;51.976;5.326;2023-03-03T03:29:24;102497.81;;;1.59;100.00
45403;BME280;47427;51.976;5.326;2023-03-03T03:32:47;102503.50;;;1.55;100.00
45403;BME280;47427;51.976;5.326;2023-03-03T03:36:09;102504.19;;;1.43;100.00
45403;BME280;47427;51.976;5.326;2023-03-03T03:39:32;102508.78;;;1.27;100.00
45403;BME280;47427;51.976;5.326;2023-03-03T03:42:54;102507.16;;;1.38;100.00
45403;BME280;47427;51.976;5.326;2023-03-03T03:46:18;102505.72;;;1.41;100.00
45403;BME280;47427;51.976;5.326;2023-03-03T03:49:41;102518.44;;;1.48;100.00
45403;BME280;47427;51.976;5.326;2023-03-03T03:53:04;102511.81;;;1.42;100.00
45403;BME280;47427;51.976;5.326;2023-03-03T03:56:27;102522.16;;;1.42;100.00
45403;BME280;47427;51.976;5.326;2023-03-03T03:59:53;102525.38;;;1.39;100.00
45403;BME280;47427;51.976;5.326;2023-03-03T04:03:14;102514.00;;;1.37;100.00
45403;BME280;47427;51.976;5.326;2023-03-03T04:06:40;102522.25;;;1.33;100.00
45403;BME280;47427;51.976;5.326;2023-03-03T04:10:02;102513.59;;;1.33;100.00
45403;BME280;47427;51.976;5.326;2023-03-03T04:13:25;102514.06;;;1.28;100.00
45403;BME280;47427;51.976;5.326;2023-03-03T04:16:50;102516.03;;;1.31;100.00
45403;BME280;47427;51.976;5.326;2023-03-03T04:20:14;102515.75;;;1.28;100.00
45403;BME280;47427;51.976;5.326;2023-03-03T04:23:39;102513.44;;;1.31;100.00
45403;BME280;47427;51.976;5.326;2023-03-03T04:27:02;102520.44;;;1.32;100.00
45403;BME280;47427;51.976;5.326;2023-03-03T04:30:24;102521.47;;;1.34;100.00
45403;BME280;47427;51.976;5.326;2023-03-03T04:33:51;102525.25;;;1.38;100.00
45403;BME280;47427;51.976;5.326;2023-03-03T04:37:14;102527.69;;;1.36;100.00
45403;BME280;47427;51.976;5.326;2023-03-03T04:40:40;102520.72;;;1.35;100.00
45403;BME280;47427;51.976;5.326;2023-03-03T04:44:04;102525.09;;;1.36;100.00
45403;BME280;47427;51.976;5.326;2023-03-03T04:47:26;102518.59;;;1.31;100.00
45403;BME280;47427;51.976;5.326;2023-03-03T04:50:49;102507.38;;;1.30;100.00
45403;BME280;47427;51.976;5.326;2023-03-03T04:54:12;102519.19;;;1.37;100.00
45403;BME280;47427;51.976;5.326;2023-03-03T04:57:35;102520.84;;;1.37;100.00
45403;BME280;47427;51.976;5.326;2023-03-03T05:00:58;102522.94;;;1.41;100.00
45403;BME280;47427;51.976;5.326;2023-03-03T05:04:22;102525.38;;;1.39;100.00
45403;BME280;47427;51.976;5.326;2023-03-03T05:07:44;102527.56;;;1.35;100.00
45403;BME280;47427;51.976;5.326;2023-03-03T05:11:07;102530.28;;;1.36;100.00
45403;BME280;47427;51.976;5.326;2023-03-03T05:14:29;102534.81;;;1.39;100.00
45403;BME280;47427;51.976;5.326;2023-03-03T05:17:52;102532.22;;;1.39;100.00
45403;BME280;47427;51.976;5.326;2023-03-03T05:21:18;102528.47;;;1.35;100.00
45403;BME280;47427;51.976;5.326;2023-03-03T05:24:40;102531.06;;;1.35;100.00
45403;BME280;47427;51.976;5.326;2023-03-03T05:28:04;102534.53;;;1.36;100.00
45403;BME280;47427;51.976;5.326;2023-03-03T05:31:26;102536.78;;;1.41;100.00
45403;BME280;47427;51.976;5.326;2023-03-03T05:34:47;102543.41;;;1.48;100.00
45403;BME280;47427;51.976;5.326;2023-03-03T05:38:10;102534.81;;;1.58;100.00
45403;BME280;47427;51.976;5.326;2023-03-03T05:41:32;102527.16;;;1.59;100.00
45403;BME280;47427;51.976;5.326;2023-03-03T05:44:58;102533.44;;;1.71;100.00
45403;BME280;47427;51.976;5.326;2023-03-03T05:48:20;102535.28;;;1.72;100.00
45403;BME280;47427;51.976;5.326;2023-03-03T05:51:42;102532.25;;;1.68;100.00
45403;BME280;47427;51.976;5.326;2023-03-03T05:55:05;102537.22;;;1.75;100.00
45403;BME280;47427;51.976;5.326;2023-03-03T05:58:27;102540.97;;;1.79;100.00
45403;BME280;47427;51.976;5.326;2023-03-03T06:01:50;102529.31;;;1.73;100.00
45403;BME280;47427;51.976;5.326;2023-03-03T06:05:13;102535.91;;;1.70;100.00
45403;BME280;47427;51.976;5.326;2023-03-03T06:08:34;102534.97;;;1.69;100.00
45403;BME280;47427;51.976;5.326;2023-03-03T06:11:57;102553.75;;;1.77;100.00
45403;BME280;47427;51.976;5.326;2023-03-03T06:15:22;102549.38;;;1.76;100.00
45403;BME280;47427;51.976;5.326;2023-03-03T06:18:43;102544.69;;;1.72;100.00
45403;BME280;47427;51.976;5.326;2023-03-03T06:22:25;102557.28;;;1.78;100.00
45403;BME280;47427;51.976;5.326;2023-03-03T06:25:48;102556.28;;;1.86;100.00
45403;BME280;47427;51.976;5.326;2023-03-03T06:29:10;102569.47;;;1.89;100.00
45403;BME280;47427;51.976;5.326;2023-03-03T06:32:33;102572.00;;;1.98;100.00
45403;BME280;47427;51.976;5.326;2023-03-03T06:36:15;102571.22;;;1.99;100.00
45403;BME280;47427;51.976;5.326;2023-03-03T06:39:38;102574.59;;;1.98;100.00
45403;BME280;47427;51.976;5.326;2023-03-03T06:42:59;102575.34;;;1.97;100.00
45403;BME280;47427;51.976;5.326;2023-03-03T06:46:25;102573.94;;;2.00;100.00
45403;BME280;47427;51.976;5.326;2023-03-03T06:49:48;102588.97;;;2.04;100.00
45403;BME280;47427;51.976;5.326;2023-03-03T06:53:15;102590.91;;;2.07;100.00
45403;BME280;47427;51.976;5.326;2023-03-03T06:56:37;102579.50;;;2.05;100.00
45403;BME280;47427;51.976;5.326;2023-03-03T07:00:19;102596.09;;;2.07;100.00
45403;BME280;47427;51.976;5.326;2023-03-03T07:03:45;102601.53;;;2.10;100.00
45403;BME280;47427;51.976;5.326;2023-03-03T07:07:18;102598.59;;;2.15;100.00
45403;BME280;47427;51.976;5.326;2023-03-03T07:10:41;102597.44;;;2.22;100.00
45403;BME280;47427;51.976;5.326;2023-03-03T07:14:15;102615.50;;;2.41;100.00
45403;BME280;47427;51.976;5.326;2023-03-03T07:17:44;102609.94;;;2.47;100.00
45403;BME280;47427;51.976;5.326;2023-03-03T07:21:33;102608.16;;;2.46;100.00
45403;BME280;47427;51.976;5.326;2023-03-03T07:24:59;102622.13;;;2.48;100.00
45403;BME280;47427;51.976;5.326;2023-03-03T07:28:28;102617.56;;;2.45;100.00
45403;BME280;47427;51.976;5.326;2023-03-03T07:32:40;102623.69;;;2.46;100.00
45403;BME280;47427;51.976;5.326;2023-03-03T07:36:05;102622.50;;;2.42;100.00
45403;BME280;47427;51.976;5.326;2023-03-03T07:39:35;102624.72;;;2.58;100.00
45403;BME280;47427;51.976;5.326;2023-03-03T07:43:42;102626.19;;;2.65;100.00
45403;BME280;47427;51.976;5.326;2023-03-03T07:47:25;102623.59;;;2.75;100.00
45403;BME280;47427;51.976;5.326;2023-03-03T07:50:47;102627.75;;;2.83;100.00
45403;BME280;47427;51.976;5.326;2023-03-03T07:54:35;102632.28;;;2.86;100.00
45403;BME280;47427;51.976;5.326;2023-03-03T08:01:43;102642.16;;;2.90;100.00
45403;BME280;47427;51.976;5.326;2023-03-03T08:05:46;102649.31;;;2.92;100.00
45403;BME280;47427;51.976;5.326;2023-03-03T08:12:40;102670.47;;;3.07;100.00
45403;BME280;47427;51.976;5.326;2023-03-03T08:19:30;102672.53;;;3.21;100.00
45403;BME280;47427;51.976;5.326;2023-03-03T08:22:52;102662.78;;;3.29;100.00
45403;BME280;47427;51.976;5.326;2023-03-03T08:26:14;102664.88;;;3.33;100.00
45403;BME280;47427;51.976;5.326;2023-03-03T08:29:38;102662.53;;;3.26;100.00
45403;BME280;47427;51.976;5.326;2023-03-03T08:33:00;102669.81;;;3.40;100.00
45403;BME280;47427;51.976;5.326;2023-03-03T08:36:22;102673.56;;;3.44;100.00
45403;BME280;47427;51.976;5.326;2023-03-03T08:39:45;102680.44;;;3.54;100.00
45403;BME280;47427;51.976;5.326;2023-03-03T08:43:07;102686.66;;;3.56;100.00
45403;BME280;47427;51.976;5.326;2023-03-03T08:46:30;102684.47;;;3.50;100.00
45403;BME280;47427;51.976;5.326;2023-03-03T08:49:52;102683.28;;;3.67;100.00
45403;BME280;47427;51.976;5.326;2023-03-03T08:53:17;102686.50;;;3.75;100.00
45403;BME280;47427;51.976;5.326;2023-03-03T08:56:40;102688.56;;;3.89;100.00
45403;BME280;47427;51.976;5.326;2023-03-03T09:00:02;102680.84;;;4.11;100.00
45403;BME280;47427;51.976;5.326;2023-03-03T09:03:25;102678.44;;;4.34;100.00
45403;BME280;47427;51.976;5.326;2023-03-03T09:07:06;102673.75;;;4.63;100.00
45403;BME280;47427;51.976;5.326;2023-03-03T09:10:29;102674.97;;;4.78;100.00
45403;BME280;47427;51.976;5.326;2023-03-03T09:14:09;102678.88;;;4.73;100.00
45403;BME280;47427;51.976;5.326;2023-03-03T09:17:34;102682.88;;;4.57;100.00
45403;BME280;47427;51.976;5.326;2023-03-03T09:20:58;102676.53;;;4.76;100.00
45403;BME280;47427;51.976;5.326;2023-03-03T09:24:29;102682.28;;;4.94;100.00
45403;BME280;47427;51.976;5.326;2023-03-03T09:27:53;102683.00;;;5.03;100.00
45403;BME280;47427;51.976;5.326;2023-03-03T09:31:37;102683.19;;;5.28;100.00
45403;BME280;47427;51.976;5.326;2023-03-03T09:35:46;102682.66;;;5.32;100.00
45403;BME280;47427;51.976;5.326;2023-03-03T09:39:25;102678.06;;;5.52;100.00
45403;BME280;47427;51.976;5.326;2023-03-03T09:43:10;102679.81;;;5.75;100.00
45403;BME280;47427;51.976;5.326;2023-03-03T09:58:18;102684.38;;;6.24;100.00
45403;BME280;47427;51.976;5.326;2023-03-03T10:05:57;102683.50;;;8.26;100.00
45403;BME280;47427;51.976;5.326;2023-03-03T10:09:45;102692.09;;;7.72;100.00
45403;BME280;47427;51.976;5.326;2023-03-03T10:21:16;102687.22;;;8.03;100.00
45403;BME280;47427;51.976;5.326;2023-03-03T10:32:18;102688.72;;;7.34;100.00
45403;BME280;47427;51.976;5.326;2023-03-03T10:43:52;102689.38;;;13.71;77.13
45403;BME280;47427;51.976;5.326;2023-03-03T10:51:43;102672.75;;;19.00;50.92
45403;BME280;47427;51.976;5.326;2023-03-03T11:02:37;102671.50;;;17.40;44.15
45403;BME280;47427;51.976;5.326;2023-03-03T11:06:19;102672.69;;;16.88;46.62
45403;BME280;47427;51.976;5.326;2023-03-03T11:17:56;102654.25;;;22.37;38.18
45403;BME280;47427;51.976;5.326;2023-03-03T11:36:47;102647.69;;;20.39;35.83
45403;BME280;47427;51.976;5.326;2023-03-03T11:40:20;102639.94;;;20.56;35.35
45403;BME280;47427;51.976;5.326;2023-03-03T11:44:10;102642.00;;;18.73;36.88
45403;BME280;47427;51.976;5.326;2023-03-03T11:48:05;102642.66;;;19.51;36.75
45403;BME280;47427;51.976;5.326;2023-03-03T11:55:26;102625.22;;;23.99;30.42
45403;BME280;47427;51.976;5.326;2023-03-03T11:59:08;102621.69;;;23.85;30.24
45403;BME280;47427;51.976;5.326;2023-03-03T12:14:19;102614.13;;;25.10;27.14
45403;BME280;47427;51.976;5.326;2023-03-03T12:22:10;102605.00;;;25.36;26.65
45403;BME280;47427;51.976;5.326;2023-03-03T12:26:12;102596.78;;;25.60;25.73
45403;BME280;47427;51.976;5.326;2023-03-03T12:30:00;102586.06;;;25.54;25.70
45403;BME280;47427;51.976;5.326;2023-03-03T12:33:58;102578.41;;;26.07;25.29
45403;BME280;47427;51.976;5.326;2023-03-03T12:41:20;102573.19;;;24.65;25.11
45403;BME280;47427;51.976;5.326;2023-03-03T12:45:06;102583.78;;;18.86;32.14
45403;BME280;47427;51.976;5.326;2023-03-03T12:48:43;102586.84;;;17.16;35.33
45403;BME280;47427;51.976;5.326;2023-03-03T12:55:52;102572.50;;;21.52;30.55
45403;BME280;47427;51.976;5.326;2023-03-03T13:07:12;102583.06;;;22.72;29.19
45403;BME280;47427;51.976;5.326;2023-03-03T13:14:44;102558.44;;;25.35;25.36
45403;BME280;47427;51.976;5.326;2023-03-03T13:25:41;102559.56;;;25.00;23.91
45403;BME280;47427;51.976;5.326;2023-03-03T13:32:41;102554.53;;;24.31;25.96
45403;BME280;47427;51.976;5.326;2023-03-03T13:36:10;102558.97;;;22.76;25.56
45403;BME280;47427;51.976;5.326;2023-03-03T13:43:54;102547.50;;;23.70;26.63
45403;BME280;47427;51.976;5.326;2023-03-03T13:47:37;102543.81;;;24.25;25.62
45403;BME280;47427;51.976;5.326;2023-03-03T13:51:27;102546.31;;;24.68;24.62
45403;BME280;47427;51.976;5.326;2023-03-03T14:03:57;102556.75;;;14.43;39.24
45403;BME280;47427;51.976;5.326;2023-03-03T14:07:51;102553.38;;;13.36;40.88
45403;BME280;47427;51.976;5.326;2023-03-03T14:11:53;102558.50;;;12.73;41.91
45403;BME280;47427;51.976;5.326;2023-03-03T14:19:33;102545.13;;;15.88;39.82
45403;BME280;47427;51.976;5.326;2023-03-03T14:26:59;102543.09;;;21.46;30.23
45403;BME280;47427;51.976;5.326;2023-03-03T14:30:25;102543.09;;;18.08;33.65
45403;BME280;47427;51.976;5.326;2023-03-03T14:34:02;102539.34;;;15.47;38.47
45403;BME280;47427;51.976;5.326;2023-03-03T14:38:02;102546.16;;;16.52;38.96
45403;BME280;47427;51.976;5.326;2023-03-03T14:41:39;102544.38;;;15.67;39.06
45403;BME280;47427;51.976;5.326;2023-03-03T14:45:22;102538.88;;;17.78;36.70
45403;BME280;47427;51.976;5.326;2023-03-03T14:49:00;102538.44;;;15.47;38.83
45403;BME280;47427;51.976;5.326;2023-03-03T14:52:33;102539.13;;;14.19;40.55
45403;BME280;47427;51.976;5.326;2023-03-03T14:55:55;102537.38;;;13.75;41.83
45403;BME280;47427;51.976;5.326;2023-03-03T14:59:35;102540.94;;;13.12;42.90
45403;BME280;47427;51.976;5.326;2023-03-03T15:03:22;102539.94;;;12.70;43.64
45403;BME280;47427;51.976;5.326;2023-03-03T15:06:51;102538.19;;;12.70;43.87
45403;BME280;47427;51.976;5.326;2023-03-03T15:10:39;102535.88;;;12.97;43.61
45403;BME280;47427;51.976;5.326;2023-03-03T15:14:14;102534.88;;;12.74;43.41
45403;BME280;47427;51.976;5.326;2023-03-03T15:21:30;102524.28;;;11.79;45.35
45403;BME280;47427;51.976;5.326;2023-03-03T15:25:08;102520.81;;;11.62;46.09
45403;BME280;47427;51.976;5.326;2023-03-03T15:29:16;102527.72;;;11.24;46.80
45403;BME280;47427;51.976;5.326;2023-03-03T15:52:36;102508.47;;;10.24;49.22
45403;BME280;47427;51.976;5.326;2023-03-03T15:56:15;102513.03;;;10.11;50.50
45403;BME280;47427;51.976;5.326;2023-03-03T16:03:31;102514.50;;;10.54;51.16
45403;BME280;47427;51.976;5.326;2023-03-03T16:11:41;102519.81;;;9.91;52.03
45403;BME280;47427;51.976;5.326;2023-03-03T16:27:28;102526.22;;;8.61;54.74
45403;BME280;47427;51.976;5.326;2023-03-03T16:31:02;102519.94;;;8.31;56.31
45403;BME280;47427;51.976;5.326;2023-03-03T16:34:54;102528.03;;;8.21;56.96
45403;BME280;47427;51.976;5.326;2023-03-03T16:38:52;102523.66;;;7.93;56.94
45403;BME280;47427;51.976;5.326;2023-03-03T16:42:31;102537.34;;;7.49;57.75
45403;BME280;47427;51.976;5.326;2023-03-03T16:46:01;102535.63;;;7.23;59.41
45403;BME280;47427;51.976;5.326;2023-03-03T16:49:38;102542.75;;;7.12;59.99
45403;BME280;47427;51.976;5.326;2023-03-03T17:04:57;102550.78;;;6.77;62.45
45403;BME280;47427;51.976;5.326;2023-03-03T17:08:41;102551.81;;;6.54;62.48
45403;BME280;47427;51.976;5.326;2023-03-03T17:12:13;102549.53;;;6.22;63.53
45403;BME280;47427;51.976;5.326;2023-03-03T17:16:24;102555.81;;;6.00;64.66
45403;BME280;47427;51.976;5.326;2023-03-03T17:20:05;102559.22;;;5.88;65.12
45403;BME280;47427;51.976;5.326;2023-03-03T17:23:41;102563.06;;;5.69;65.86
45403;BME280;47427;51.976;5.326;2023-03-03T17:27:27;102566.00;;;5.50;66.73
45403;BME280;47427;51.976;5.326;2023-03-03T17:31:18;102562.13;;;5.33;67.78
45403;BME280;47427;51.976;5.326;2023-03-03T17:34:56;102566.00;;;5.27;67.78
45403;BME280;47427;51.976;5.326;2023-03-03T17:39:12;102564.94;;;5.13;68.52
45403;BME280;47427;51.976;5.326;2023-03-03T17:42:56;102574.72;;;4.93;69.44
45403;BME280;47427;51.976;5.326;2023-03-03T17:47:29;102571.22;;;4.93;70.29
45403;BME280;47427;51.976;5.326;2023-03-03T18:15:04;102594.09;;;6.13;71.27
45403;BME280;47427;51.976;5.326;2023-03-03T18:19:19;102599.25;;;6.25;70.80
45403;BME280;47427;51.976;5.326;2023-03-03T18:22:48;102591.22;;;6.34;70.46
45403;BME280;47427;51.976;5.326;2023-03-03T18:26:35;102593.69;;;6.44;70.33
45403;BME280;47427;51.976;5.326;2023-03-03T18:34:00;102595.59;;;6.46;70.65
45403;BME280;47427;51.976;5.326;2023-03-03T18:44:28;102599.84;;;6.58;71.21
45403;BME280;47427;51.976;5.326;2023-03-03T18:48:14;102599.63;;;6.55;71.28
45403;BME280;47427;51.976;5.326;2023-03-03T18:58:36;102614.88;;;6.48;71.29
45403;BME280;47427;51.976;5.326;2023-03-03T19:02:37;102620.09;;;6.48;71.17
45403;BME280;47427;51.976;5.326;2023-03-03T19:06:08;102613.94;;;6.48;71.25
45403;BME280;47427;51.976;5.326;2023-03-03T19:09:46;102616.66;;;6.49;71.19
45403;BME280;47427;51.976;5.326;2023-03-03T19:13:40;102608.50;;;6.45;71.22
45403;BME280;47427;51.976;5.326;2023-03-03T19:21:00;102619.28;;;6.49;71.70
45403;BME280;47427;51.976;5.326;2023-03-03T19:24:29;102616.41;;;6.58;71.71
45403;BME280;47427;51.976;5.326;2023-03-03T19:47:40;102620.31;;;6.40;73.39
45403;BME280;47427;51.976;5.326;2023-03-03T19:51:31;102630.31;;;6.34;73.22
45403;BME280;47427;51.976;5.326;2023-03-03T19:55:24;102635.75;;;6.37;73.81
45403;BME280;47427;51.976;5.326;2023-03-03T20:11:14;102628.25;;;6.41;73.86
45403;BME280;47427;51.976;5.326;2023-03-03T20:26:23;102637.41;;;6.48;73.83
45403;BME280;47427;51.976;5.326;2023-03-03T20:45:13;102639.22;;;6.49;74.68
45403;BME280;47427;51.976;5.326;2023-03-03T20:48:57;102646.47;;;6.53;74.56
45403;BME280;47427;51.976;5.326;2023-03-03T20:56:12;102640.47;;;6.54;75.10
45403;BME280;47427;51.976;5.326;2023-03-03T21:03:47;102648.63;;;6.59;74.96
45403;BME280;47427;51.976;5.326;2023-03-03T21:07:23;102642.47;;;6.58;75.34
45403;BME280;47427;51.976;5.326;2023-03-03T21:10:45;102649.31;;;6.56;75.80
45403;BME280;47427;51.976;5.326;2023-03-03T21:14:28;102646.03;;;6.47;75.59
45403;BME280;47427;51.976;5.326;2023-03-03T21:17:51;102640.94;;;6.48;76.14
45403;BME280;47427;51.976;5.326;2023-03-03T21:21:16;102633.22;;;6.50;76.14
45403;BME280;47427;51.976;5.326;2023-03-03T21:24:57;102632.44;;;6.51;76.29
45403;BME280;47427;51.976;5.326;2023-03-03T21:28:30;102637.09;;;6.43;76.73
45403;BME280;47427;51.976;5.326;2023-03-03T21:31:58;102638.47;;;6.38;76.92
45403;BME280;47427;51.976;5.326;2023-03-03T21:35:21;102646.38;;;6.40;76.75
45403;BME280;47427;51.976;5.326;2023-03-03T21:38:44;102640.28;;;6.39;77.39
45403;BME280;47427;51.976;5.326;2023-03-03T21:42:15;102639.38;;;6.39;77.75
45403;BME280;47427;51.976;5.326;2023-03-03T21:45:40;102642.31;;;6.43;77.13
45403;BME280;47427;51.976;5.326;2023-03-03T21:49:04;102637.88;;;6.42;77.57
45403;BME280;47427;51.976;5.326;2023-03-03T21:52:47;102629.41;;;6.33;77.82
45403;BME280;47427;51.976;5.326;2023-03-03T21:56:11;102628.94;;;6.39;78.21
45403;BME280;47427;51.976;5.326;2023-03-03T21:59:38;102625.75;;;6.43;78.01
45403;BME280;47427;51.976;5.326;2023-03-03T22:02:59;102618.50;;;6.39;78.28
45403;BME280;47427;51.976;5.326;2023-03-03T22:06:22;102622.59;;;6.35;78.33
45403;BME280;47427;51.976;5.326;2023-03-03T22:09:45;102623.06;;;6.29;78.50
45403;BME280;47427;51.976;5.326;2023-03-03T22:13:06;102620.34;;;6.28;79.06
45403;BME280;47427;51.976;5.326;2023-03-03T22:16:29;102618.66;;;6.28;79.32
45403;BME280;47427;51.976;5.326;2023-03-03T22:19:51;102618.09;;;6.21;79.40
45403;BME280;47427;51.976;5.326;2023-03-03T22:23:15;102623.31;;;6.21;79.59
45403;BME280;47427;51.976;5.326;2023-03-03T22:26:38;102626.13;;;6.24;79.32
45403;BME280;47427;51.976;5.326;2023-03-03T22:30:00;102629.41;;;6.21;79.47
45403;BME280;47427;51.976;5.326;2023-03-03T22:33:23;102622.72;;;6.25;79.09
45403;BME280;47427;51.976;5.326;2023-03-03T22:36:46;102631.09;;;6.33;79.54
45403;BME280;47427;51.976;5.326;2023-03-03T22:40:08;102636.56;;;6.36;79.68
45403;BME280;47427;51.976;5.326;2023-03-03T22:43:31;102631.34;;;6.36;79.54
45403;BME280;47427;51.976;5.326;2023-03-03T22:46:53;102626.22;;;6.37;80.05
45403;BME280;47427;51.976;5.326;2023-03-03T22:50:16;102633.47;;;6.41;79.61
45403;BME280;47427;51.976;5.326;2023-03-03T22:53:39;102625.66;;;6.29;80.15
45403;BME280;47427;51.976;5.326;2023-03-03T22:57:00;102621.81;;;6.24;80.17
45403;BME280;47427;51.976;5.326;2023-03-03T23:00:23;102630.53;;;6.25;80.73
45403;BME280;47427;51.976;5.326;2023-03-03T23:03:46;102631.22;;;6.22;80.58
45403;BME280;47427;51.976;5.326;2023-03-03T23:07:07;102618.53;;;6.15;80.49
45403;BME280;47427;51.976;5.326;2023-03-03T23:10:30;102624.13;;;6.08;80.28
45403;BME280;47427;51.976;5.326;2023-03-03T23:13:51;102618.78;;;6.06;79.63
45403;BME280;47427;51.976;5.326;2023-03-03T23:17:14;102616.41;;;6.10;80.19
45403;BME280;47427;51.976;5.326;2023-03-03T23:20:37;102632.84;;;6.08;80.61
45403;BME280;47427;51.976;5.326;2023-03-03T23:23:59;102632.94;;;6.10;80.76
45403;BME280;47427;51.976;5.326;2023-03-03T23:27:41;102622.75;;;6.01;80.64
45403;BME280;47427;51.976;5.326;2023-03-03T23:31:04;102628.19;;;6.04;80.66
45403;BME280;47427;51.976;5.326;2023-03-03T23:34:27;102625.78;;;6.07;80.03
45403;BME280;47427;51.976;5.326;2023-03-03T23:37:50;102620.50;;;6.06;80.21
45403;BME280;47427;51.976;5.326;2023-03-03T23:41:11;102624.91;;;6.07;80.44
45403;BME280;47427;51.976;5.326;2023-03-03T23:44:34;102625.50;;;6.03;80.73
45403;BME280;47427;51.976;5.326;2023-03-03T23:47:58;102627.28;;;6.04;80.49
45403;BME280;47427;51.976;5.326;2023-03-03T23:51:20;102635.09;;;6.04;80.99
45403;BME280;47427;51.976;5.326;2023-03-03T23:54:44;102626.25;;;6.02;80.90
45403;BME280;47427;51.976;5.326;2023-03-03T23:58:05;102628.78;;;6.00;81.14
